Terminal Aerodrome Forecast
Issued by NWS

Home | Current Version | Previous Version | Text Only | Print | Product List | Glossary On
Versions: 1 2 3 4 5 6 7 8 9 10 11 12 13 14 15 16 17 18 19 20 21 22 23 24 25 26 27 28 29 30 31 32 33 34 35
000
FTUS43 KPAH 041032 AAB
TAFOWB
TAF AMD
KOWB 041032Z 0411/0506 01006KT 4SM -RA BR OVC004
      TEMPO 0411/0412 2SM -RA BR SCT004 OVC011
     FM041300 35010KT 3SM -PLSN BR OVC010
     FM041700 35012G18KT 2SM -SN BR OVC015
     FM050300 36012G17KT 4SM -SN BR OVC020=

USA.gov is the U.S. government's official web portal to all federal, state and local government web resources and services.